Time;durP1;ratioP1;P1;durP2;ratioP2;P2;SDS_P1;SDS_P2;PMS_P1;PMS_P2;Temp;Humidity;BMP_temperature;BMP_pressure;BME280_temperature;BME280_humidity;BME280_pressure;Samples;Min_cycle;Max_cycle;Signal;HPM_P1;HPM_P2
2024/01/31 00:02:04;;;;;;;21.40;9.77;;;6.90;98.00;;;;;;5012136;28;20465;-90
2024/01/31 00:04:32;;;;;;;17.10;8.63;;;6.80;98.00;;;;;;5011915;28;20787;-88
2024/01/31 00:06:59;;;;;;;26.40;10.70;;;6.80;98.00;;;;;;5012103;28;20946;-89
2024/01/31 00:09:26;;;;;;;27.17;10.80;;;6.80;98.00;;;;;;5011542;28;20518;-89
2024/01/31 00:11:53;;;;;;;22.70;11.00;;;6.80;98.00;;;;;;5011727;28;20466;-89
2024/01/31 00:14:21;;;;;;;31.30;12.83;;;6.70;98.00;;;;;;5011850;28;21054;-87
2024/01/31 00:16:48;;;;;;;24.77;10.80;;;6.70;98.00;;;;;;5012200;28;21035;-89
2024/01/31 00:19:15;;;;;;;21.43;9.43;;;6.60;98.00;;;;;;5014470;28;20469;-88
2024/01/31 00:21:43;;;;;;;22.53;9.93;;;6.60;98.00;;;;;;5015647;28;20493;-89
2024/01/31 00:24:11;;;;;;;18.63;9.13;;;6.60;98.00;;;;;;5015119;28;20466;-89
2024/01/31 00:26:38;;;;;;;22.67;9.10;;;6.70;98.00;;;;;;5015261;28;20481;-89
2024/01/31 00:29:05;;;;;;;24.27;10.40;;;6.70;98.00;;;;;;5015013;28;20475;-88
2024/01/31 00:31:33;;;;;;;22.57;10.10;;;6.80;98.00;;;;;;5015110;28;21029;-89
2024/01/31 00:34:00;;;;;;;25.37;9.20;;;6.80;98.00;;;;;;5015075;28;20486;-89
2024/01/31 00:36:27;;;;;;;18.53;9.30;;;6.90;98.00;;;;;;5015311;28;20470;-89
2024/01/31 00:38:56;;;;;;;20.17;9.00;;;7.00;98.00;;;;;;5014383;28;20841;-90
2024/01/31 00:41:26;;;;;;;17.33;8.77;;;7.00;98.00;;;;;;5014963;28;20481;-88
2024/01/31 00:43:53;;;;;;;24.70;10.40;;;7.00;98.00;;;;;;5014979;28;20462;-89
2024/01/31 00:46:20;;;;;;;21.00;10.23;;;7.00;98.00;;;;;;5014954;28;20964;-89
2024/01/31 00:48:47;;;;;;;17.53;9.23;;;7.00;98.00;;;;;;5014689;28;20961;-90
2024/01/31 00:51:14;;;;;;;23.77;10.63;;;7.10;98.00;;;;;;5014729;28;20493;-89
2024/01/31 00:53:41;;;;;;;21.90;9.87;;;7.10;98.00;;;;;;5014670;28;20469;-89
2024/01/31 00:56:10;;;;;;;27.70;10.70;;;7.00;98.00;;;;;;5014588;28;20449;-89
2024/01/31 00:58:37;;;;;;;24.13;10.13;;;7.00;98.00;;;;;;5014171;28;20462;-89
2024/01/31 01:01:04;;;;;;;22.80;9.60;;;7.00;98.00;;;;;;5014534;28;20850;-89
2024/01/31 01:03:31;;;;;;;25.83;11.23;;;7.10;98.00;;;;;;5015040;28;20460;-89
2024/01/31 01:05:58;;;;;;;23.10;10.37;;;7.10;98.00;;;;;;5014380;28;20443;-88
2024/01/31 01:08:25;;;;;;;20.13;9.20;;;7.10;98.00;;;;;;5013237;28;20462;-90
2024/01/31 01:10:54;;;;;;;22.00;10.67;;;7.10;98.00;;;;;;5013868;28;20482;-89
2024/01/31 01:13:22;;;;;;;19.90;9.90;;;7.00;98.00;;;;;;5013526;28;20468;-89
2024/01/31 01:15:50;;;;;;;20.97;10.30;;;7.00;98.00;;;;;;5014049;28;20590;-88
2024/01/31 01:18:16;;;;;;;21.90;9.83;;;7.00;98.00;;;;;;5014033;28;20473;-88
2024/01/31 01:20:44;;;;;;;26.97;11.93;;;7.20;98.00;;;;;;5014402;28;21030;-89
2024/01/31 01:23:11;;;;;;;23.13;11.40;;;7.10;98.00;;;;;;5014380;28;20959;-88
2024/01/31 01:25:40;;;;;;;20.73;10.00;;;7.10;98.00;;;;;;5014241;28;20442;-88
2024/01/31 01:28:07;;;;;;;22.80;10.30;;;7.10;98.00;;;;;;5013678;28;20460;-89
2024/01/31 01:30:36;;;;;;;22.00;9.80;;;7.20;98.00;;;;;;5014018;28;20845;-88
2024/01/31 01:33:03;;;;;;;20.00;9.13;;;7.20;98.00;;;;;;5013971;28;20460;-89
2024/01/31 01:35:30;;;;;;;20.97;9.30;;;7.20;98.00;;;;;;5013799;28;20486;-89
2024/01/31 01:37:57;;;;;;;21.70;10.13;;;7.20;98.00;;;;;;5013708;28;20532;-89
2024/01/31 01:40:24;;;;;;;24.83;10.63;;;7.20;98.00;;;;;;5014588;28;20483;-89
2024/01/31 01:42:51;;;;;;;26.17;11.40;;;7.20;98.00;;;;;;5014375;28;20462;-88
2024/01/31 01:45:18;;;;;;;26.63;11.57;;;7.20;98.00;;;;;;5013667;28;20886;-89
2024/01/31 01:47:50;;;;;;;21.47;9.90;;;7.30;98.00;;;;;;5013864;28;20480;-89
2024/01/31 01:50:17;;;;;;;24.17;10.40;;;7.20;98.00;;;;;;5013930;28;20482;-89
2024/01/31 01:52:45;;;;;;;23.50;9.63;;;7.10;98.00;;;;;;5013797;28;20470;-88
2024/01/31 01:55:12;;;;;;;20.23;9.57;;;7.00;98.00;;;;;;5013467;28;20486;-89
2024/01/31 01:57:42;;;;;;;26.80;10.67;;;7.00;98.00;;;;;;5013090;28;20454;-88
2024/01/31 02:00:11;;;;;;;25.90;10.93;;;7.00;98.00;;;;;;5013370;28;20496;-89
2024/01/31 02:02:38;;;;;;;25.30;10.90;;;7.00;98.00;;;;;;5013695;28;20848;-89
2024/01/31 02:05:08;;;;;;;23.17;10.03;;;7.00;98.00;;;;;;5013511;28;20920;-90
2024/01/31 02:07:36;;;;;;;25.17;10.37;;;7.00;98.00;;;;;;5013609;28;20458;-89
2024/01/31 02:10:04;;;;;;;26.47;10.37;;;7.00;98.00;;;;;;5012926;28;20885;-88
2024/01/31 02:12:31;;;;;;;24.53;11.27;;;7.00;98.00;;;;;;5013511;28;20941;-89
2024/01/31 02:14:58;;;;;;;25.50;11.03;;;7.00;98.00;;;;;;5013155;28;20491;-89
2024/01/31 02:17:25;;;;;;;29.83;11.53;;;7.00;98.00;;;;;;5013590;28;20463;-89
2024/01/31 02:19:52;;;;;;;22.57;10.63;;;7.00;98.00;;;;;;5012625;28;20474;-89
2024/01/31 02:22:22;;;;;;;24.30;11.00;;;7.10;98.00;;;;;;5012682;28;20465;-87
2024/01/31 02:24:49;;;;;;;28.03;10.67;;;7.10;98.00;;;;;;5013122;28;20447;-89
2024/01/31 02:27:16;;;;;;;24.27;10.70;;;7.20;98.00;;;;;;5012928;28;20459;-89
2024/01/31 02:29:43;;;;;;;31.33;10.93;;;7.10;98.00;;;;;;5012649;28;20467;-88
2024/01/31 02:32:10;;;;;;;23.03;10.40;;;7.10;98.00;;;;;;5012918;28;20851;-90
2024/01/31 02:34:37;;;;;;;31.27;11.00;;;7.00;98.00;;;;;;5012867;28;20884;-88
2024/01/31 02:37:05;;;;;;;28.43;10.80;;;7.20;98.00;;;;;;5013134;28;20950;-89
2024/01/31 02:39:33;;;;;;;21.70;9.93;;;7.20;98.00;;;;;;5012618;28;20458;-89
2024/01/31 02:42:00;;;;;;;26.57;10.20;;;7.20;98.00;;;;;;5012489;28;20505;-90
2024/01/31 02:44:27;;;;;;;27.23;11.20;;;7.00;98.00;;;;;;5012815;28;20461;-89
2024/01/31 02:46:55;;;;;;;25.30;10.90;;;7.00;98.00;;;;;;5012777;28;20471;-88
2024/01/31 02:49:22;;;;;;;22.33;10.80;;;6.90;98.00;;;;;;5012019;28;20485;-88
2024/01/31 02:51:49;;;;;;;22.87;10.10;;;6.80;98.00;;;;;;5012859;28;20989;-89
2024/01/31 02:54:16;;;;;;;22.77;10.30;;;6.80;98.00;;;;;;5012670;28;20465;-88
2024/01/31 02:56:44;;;;;;;22.93;10.43;;;6.80;98.00;;;;;;5012113;28;20469;-90
2024/01/31 02:59:11;;;;;;;26.30;11.33;;;6.80;98.00;;;;;;5012182;28;20961;-89
2024/01/31 03:01:44;;;;;;;20.33;10.00;;;6.80;98.00;;;;;;5012501;28;20492;-89
2024/01/31 03:04:11;;;;;;;29.47;11.17;;;6.80;98.00;;;;;;5012361;28;20519;-89
2024/01/31 03:06:39;;;;;;;21.10;10.07;;;6.90;98.00;;;;;;5012952;28;20539;-88
2024/01/31 03:09:06;;;;;;;25.83;9.77;;;7.00;98.00;;;;;;5012102;28;20453;-89
2024/01/31 03:11:33;;;;;;;22.93;10.30;;;7.00;98.00;;;;;;5012594;28;20986;-89
2024/01/31 03:14:01;;;;;;;22.83;9.83;;;7.00;98.00;;;;;;5012461;28;20461;-89
2024/01/31 03:16:28;;;;;;;22.80;10.80;;;7.00;98.00;;;;;;5012216;28;20493;-87
2024/01/31 03:18:57;;;;;;;21.50;9.40;;;7.00;98.00;;;;;;5011901;28;20922;-89
2024/01/31 03:21:25;;;;;;;23.23;9.70;;;6.90;98.00;;;;;;5012719;28;20929;-89
2024/01/31 03:23:52;;;;;;;24.27;10.57;;;6.90;98.00;;;;;;5012147;28;20463;-89
2024/01/31 03:26:19;;;;;;;26.37;10.50;;;6.90;98.00;;;;;;5012612;28;20810;-89
2024/01/31 03:28:47;;;;;;;31.90;10.67;;;7.00;98.00;;;;;;5011802;28;20465;-88
2024/01/31 03:31:15;;;;;;;24.10;10.80;;;7.00;98.00;;;;;;5011990;28;20495;-88
2024/01/31 03:33:42;;;;;;;24.33;10.43;;;6.90;98.00;;;;;;5012604;28;20486;-89
2024/01/31 03:36:11;;;;;;;22.30;10.30;;;6.80;98.00;;;;;;5011841;28;20501;-89
2024/01/31 03:38:38;;;;;;;21.90;9.43;;;6.90;98.00;;;;;;5012007;28;20517;-89
2024/01/31 03:41:05;;;;;;;23.80;10.30;;;6.90;98.00;;;;;;5012129;28;20484;-89
2024/01/31 03:43:32;;;;;;;23.17;10.73;;;6.90;98.00;;;;;;5012688;28;20457;-89
2024/01/31 03:46:00;;;;;;;20.90;9.83;;;6.90;98.00;;;;;;5011737;28;20469;-89
2024/01/31 03:48:28;;;;;;;23.47;10.10;;;6.80;98.00;;;;;;5011857;28;21032;-89
2024/01/31 03:50:58;;;;;;;20.07;9.60;;;6.80;98.00;;;;;;5012369;28;20480;-89
2024/01/31 03:53:25;;;;;;;30.27;10.20;;;6.90;98.00;;;;;;5014162;28;20468;-88
2024/01/31 03:55:52;;;;;;;21.07;9.20;;;6.90;98.00;;;;;;5015533;28;20926;-89
2024/01/31 03:58:19;;;;;;;26.40;10.30;;;6.80;98.00;;;;;;5014983;28;20912;-88
2024/01/31 04:00:47;;;;;;;22.40;10.60;;;6.80;98.00;;;;;;5015642;28;20484;-89
2024/01/31 04:03:14;;;;;;;22.40;10.30;;;6.70;98.00;;;;;;5016330;28;20465;-89
2024/01/31 04:05:43;;;;;;;20.50;9.60;;;6.70;98.00;;;;;;5015425;28;20459;-88
2024/01/31 04:08:10;;;;;;;20.57;9.87;;;6.70;98.00;;;;;;5015506;28;20548;-89
2024/01/31 04:10:37;;;;;;;20.63;9.90;;;6.80;98.00;;;;;;5015766;28;20481;-88
2024/01/31 04:13:05;;;;;;;22.90;10.27;;;6.90;98.00;;;;;;5015919;28;20490;-89
2024/01/31 04:15:32;;;;;;;28.60;11.20;;;6.90;98.00;;;;;;5015286;28;20480;-88
2024/01/31 04:18:00;;;;;;;20.37;10.03;;;7.00;98.00;;;;;;5015312;28;20459;-89
2024/01/31 04:20:27;;;;;;;21.17;10.03;;;7.00;98.00;;;;;;5015090;28;20482;-88
2024/01/31 04:22:56;;;;;;;24.43;11.30;;;7.00;98.00;;;;;;5015387;28;20469;-89
2024/01/31 04:25:23;;;;;;;21.87;10.50;;;7.00;98.00;;;;;;5015084;28;20451;-89
2024/01/31 04:27:50;;;;;;;24.67;10.10;;;7.00;98.00;;;;;;5015065;28;20452;-89
2024/01/31 04:30:18;;;;;;;24.60;9.90;;;7.00;98.00;;;;;;5015145;28;20512;-89
2024/01/31 04:32:45;;;;;;;22.60;10.47;;;7.00;98.00;;;;;;5015321;28;20444;-88
2024/01/31 04:35:12;;;;;;;24.13;10.20;;;7.00;98.00;;;;;;5015010;28;20487;-88
2024/01/31 04:37:40;;;;;;;28.60;11.00;;;7.00;98.00;;;;;;5015080;28;20460;-88
2024/01/31 04:40:09;;;;;;;25.47;10.90;;;7.10;98.00;;;;;;5015046;28;20997;-89
2024/01/31 04:42:36;;;;;;;26.90;10.50;;;7.10;98.00;;;;;;5015486;28;20551;-89
2024/01/31 04:45:04;;;;;;;22.53;9.60;;;7.20;98.00;;;;;;5014417;28;20462;-89
2024/01/31 04:47:32;;;;;;;21.07;9.80;;;7.20;98.00;;;;;;5015032;28;20463;-88
2024/01/31 04:49:59;;;;;;;18.80;9.17;;;7.10;98.00;;;;;;5014846;28;20487;-89
2024/01/31 04:52:26;;;;;;;19.80;10.20;;;7.00;98.00;;;;;;5014880;28;20505;-88
2024/01/31 04:54:55;;;;;;;20.83;9.33;;;7.00;98.00;;;;;;5014628;28;20461;-89
2024/01/31 04:57:23;;;;;;;21.40;9.60;;;7.00;98.00;;;;;;5014870;28;20569;-89
2024/01/31 04:59:50;;;;;;;20.23;9.90;;;7.00;98.00;;;;;;5014421;28;20486;-89
2024/01/31 05:02:18;;;;;;;23.70;9.43;;;7.10;98.00;;;;;;5015286;28;20463;-90
2024/01/31 05:04:45;;;;;;;25.17;9.43;;;7.30;98.00;;;;;;5015475;28;20463;-88
2024/01/31 05:07:12;;;;;;;23.40;9.80;;;7.20;98.00;;;;;;5014710;28;20450;-89
2024/01/31 05:09:39;;;;;;;18.47;8.80;;;7.20;98.00;;;;;;5013950;28;20976;-89
2024/01/31 05:12:07;;;;;;;19.70;9.27;;;7.20;98.00;;;;;;5014313;28;20560;-88
2024/01/31 05:14:35;;;;;;;21.83;9.53;;;7.20;98.00;;;;;;5014110;28;20453;-88
2024/01/31 05:17:02;;;;;;;21.00;9.07;;;7.20;98.00;;;;;;5014306;28;20496;-89
2024/01/31 05:19:29;;;;;;;21.83;9.50;;;7.30;98.00;;;;;;5014180;28;20462;-88
2024/01/31 05:21:59;;;;;;;22.73;9.80;;;7.20;98.00;;;;;;5014726;28;20548;-89
2024/01/31 05:24:28;;;;;;;22.30;9.50;;;7.10;98.00;;;;;;5014638;28;20455;-89
2024/01/31 05:27:10;;;;;;;22.53;9.33;;;7.00;98.00;;;;;;5013996;28;20455;-88
2024/01/31 05:29:51;;;;;;;21.00;9.00;;;7.10;98.00;;;;;;5013154;28;20458;-89
2024/01/31 05:32:21;;;;;;;20.90;8.93;;;7.10;98.00;;;;;;5013917;28;20469;-88
2024/01/31 05:34:48;;;;;;;19.60;9.20;;;7.10;98.00;;;;;;5014262;28;20448;-89
2024/01/31 05:37:16;;;;;;;18.33;8.73;;;7.10;98.00;;;;;;5014020;28;20498;-89
2024/01/31 05:39:45;;;;;;;22.83;9.87;;;7.10;98.00;;;;;;5012743;28;20974;-87
2024/01/31 05:42:13;;;;;;;45.97;18.77;;;7.10;98.00;;;;;;5013761;28;20494;-89
2024/01/31 05:44:44;;;;;;;23.63;11.17;;;7.10;98.00;;;;;;5013558;28;20815;-89
2024/01/31 05:53:06;;;;;;;24.50;9.50;;;7.40;98.00;;;;;;4953276;29;20452;-89
2024/01/31 05:55:35;;;;;;;25.50;9.53;;;7.30;98.00;;;;;;4982339;28;20541;-88
2024/01/31 05:58:02;;;;;;;20.67;9.17;;;7.20;98.00;;;;;;5012902;28;20470;-89
2024/01/31 06:00:29;;;;;;;20.80;9.47;;;7.30;98.00;;;;;;5013809;28;20479;-88
2024/01/31 06:02:57;;;;;;;19.73;9.13;;;7.20;98.00;;;;;;5014058;28;20899;-89
2024/01/31 06:05:24;;;;;;;20.67;9.13;;;7.20;98.00;;;;;;5013176;28;20511;-90
2024/01/31 06:07:51;;;;;;;17.40;8.23;;;7.20;98.00;;;;;;5013445;28;20907;-88
2024/01/31 06:10:19;;;;;;;25.67;10.47;;;7.20;98.00;;;;;;5013417;28;20486;-89
2024/01/31 06:12:46;;;;;;;21.73;10.23;;;7.30;98.00;;;;;;5013134;28;20513;-89
2024/01/31 06:15:13;;;;;;;17.97;9.00;;;7.30;98.00;;;;;;5012807;28;20467;-89
2024/01/31 06:17:41;;;;;;;23.97;10.20;;;7.20;98.00;;;;;;5013302;28;20490;-89
2024/01/31 06:20:12;;;;;;;24.73;9.93;;;7.10;98.00;;;;;;5013454;28;20493;-88
2024/01/31 06:22:39;;;;;;;19.10;8.50;;;7.20;98.00;;;;;;5013601;28;20505;-88
2024/01/31 06:25:06;;;;;;;21.40;9.60;;;7.10;98.00;;;;;;5012758;28;20455;-88
2024/01/31 06:27:33;;;;;;;20.20;8.80;;;7.20;98.00;;;;;;5013446;28;20456;-89
2024/01/31 06:30:00;;;;;;;22.87;9.47;;;7.10;98.00;;;;;;5012998;28;20494;-88
2024/01/31 06:32:31;;;;;;;19.60;9.07;;;7.00;98.00;;;;;;5013137;28;20495;-89
2024/01/31 06:34:59;;;;;;;20.07;9.80;;;7.00;98.00;;;;;;5013212;28;20495;-89
2024/01/31 06:37:27;;;;;;;27.37;12.27;;;7.20;98.00;;;;;;5013022;28;20854;-89
2024/01/31 06:39:55;;;;;;;25.53;11.40;;;7.20;98.00;;;;;;5012435;28;20487;-89
2024/01/31 06:42:22;;;;;;;23.87;10.67;;;7.20;98.00;;;;;;5013024;28;20463;-88
2024/01/31 06:44:49;;;;;;;24.13;10.13;;;7.10;98.00;;;;;;5013015;28;20459;-89
2024/01/31 06:47:16;;;;;;;19.17;9.10;;;7.10;98.00;;;;;;5013060;28;20467;-89
2024/01/31 06:49:43;;;;;;;28.70;10.07;;;7.10;98.00;;;;;;5012741;28;20465;-90
2024/01/31 06:52:11;;;;;;;30.70;9.80;;;7.10;98.00;;;;;;5013332;28;20467;-89
2024/01/31 06:54:39;;;;;;;24.53;10.47;;;7.00;98.00;;;;;;5013480;28;20874;-89
2024/01/31 06:57:07;;;;;;;22.47;10.03;;;7.00;98.00;;;;;;5012035;28;20550;-89
2024/01/31 06:59:34;;;;;;;17.63;9.00;;;7.00;98.00;;;;;;5012227;28;20462;-90
2024/01/31 07:02:01;;;;;;;22.60;10.10;;;7.00;98.00;;;;;;5012471;28;20973;-87
2024/01/31 07:04:28;;;;;;;21.30;9.87;;;7.10;98.00;;;;;;5012867;28;20455;-89
2024/01/31 07:06:55;;;;;;;21.83;9.43;;;7.10;98.00;;;;;;5013027;28;20466;-90
2024/01/31 07:09:22;;;;;;;19.97;9.70;;;7.10;98.00;;;;;;5012528;28;20460;-88
2024/01/31 07:11:51;;;;;;;20.97;9.70;;;7.20;98.00;;;;;;5012681;28;20475;-89
2024/01/31 07:14:18;;;;;;;20.87;9.83;;;7.30;98.00;;;;;;5012040;28;20457;-89
2024/01/31 07:16:46;;;;;;;17.97;8.83;;;7.30;98.00;;;;;;5012742;28;20472;-91
2024/01/31 07:19:13;;;;;;;23.40;9.60;;;7.30;98.00;;;;;;5012651;28;20463;-88
2024/01/31 07:21:41;;;;;;;20.20;9.77;;;7.30;98.00;;;;;;5011270;28;20483;-89
2024/01/31 07:24:10;;;;;;;20.03;8.90;;;7.20;98.00;;;;;;5020923;28;20455;-90
2024/01/31 07:26:50;;;;;;;21.80;9.80;;;7.20;98.00;;;;;;5023427;28;20467;-91
2024/01/31 07:29:20;;;;;;;20.67;9.10;;;7.20;98.00;;;;;;5030980;28;20463;-92
2024/01/31 07:31:47;;;;;;;20.30;8.40;;;7.30;98.00;;;;;;5031686;28;20585;-87
2024/01/31 07:34:14;;;;;;;21.63;9.40;;;7.30;98.00;;;;;;5031931;28;20499;-90
2024/01/31 07:36:41;;;;;;;21.37;9.70;;;7.30;98.00;;;;;;5023195;28;20574;-90
2024/01/31 07:39:08;;;;;;;38.03;10.33;;;7.30;98.00;;;;;;5020924;28;20455;-90
2024/01/31 07:41:36;;;;;;;23.53;10.30;;;7.30;98.00;;;;;;5021490;28;20545;-89
2024/01/31 07:44:08;;;;;;;20.43;9.30;;;7.30;98.00;;;;;;5019837;28;20436;-90
2024/01/31 07:46:37;;;;;;;21.27;10.27;;;7.40;98.00;;;;;;5019275;28;20883;-89
2024/01/31 07:49:06;;;;;;;21.40;10.00;;;7.40;98.00;;;;;;5017714;28;20458;-90
2024/01/31 07:51:33;;;;;;;19.63;9.13;;;7.40;98.00;;;;;;5017326;28;20507;-90
2024/01/31 07:54:00;;;;;;;26.83;10.60;;;7.70;98.00;;;;;;5016789;28;20455;-89
2024/01/31 07:56:33;;;;;;;26.47;11.40;;;7.60;98.00;;;;;;5017077;28;20873;-89
2024/01/31 07:59:00;;;;;;;33.30;12.53;;;7.60;98.00;;;;;;5015677;28;20469;-90
2024/01/31 08:01:27;;;;;;;25.40;11.47;;;7.60;98.00;;;;;;5014452;28;20493;-89
2024/01/31 08:03:56;;;;;;;29.30;11.30;;;7.60;98.00;;;;;;5014223;28;20482;-89
2024/01/31 08:06:24;;;;;;;24.03;10.57;;;7.40;98.00;;;;;;5014390;28;20954;-90
2024/01/31 08:08:52;;;;;;;22.00;10.13;;;7.30;98.00;;;;;;5013947;28;20660;-90
2024/01/31 08:11:19;;;;;;;24.93;10.50;;;7.20;98.00;;;;;;5014506;28;20472;-88
2024/01/31 08:13:46;;;;;;;23.70;10.20;;;7.20;98.00;;;;;;5015592;28;20459;-90
2024/01/31 08:16:14;;;;;;;26.43;10.47;;;7.20;98.00;;;;;;5015284;28;20478;-92
2024/01/31 08:18:42;;;;;;;24.50;10.10;;;7.20;98.00;;;;;;5014491;28;20564;-91
2024/01/31 08:21:16;;;;;;;22.97;11.03;;;7.20;98.00;;;;;;5013935;28;20489;-91
2024/01/31 08:23:51;;;;;;;24.73;11.00;;;7.30;98.00;;;;;;5013926;28;20467;-91
2024/01/31 08:26:18;;;;;;;28.57;12.53;;;7.40;98.00;;;;;;5014317;28;20490;-92
2024/01/31 08:28:45;;;;;;;25.87;10.77;;;7.40;98.00;;;;;;5013811;28;20504;-91
2024/01/31 08:31:13;;;;;;;20.47;9.93;;;7.50;98.00;;;;;;5013709;28;20570;-89
2024/01/31 08:33:40;;;;;;;26.70;10.73;;;7.60;98.00;;;;;;5013950;28;20869;-91
2024/01/31 08:36:07;;;;;;;27.17;11.30;;;7.70;98.00;;;;;;5013616;28;20489;-91
2024/01/31 08:38:37;;;;;;;24.07;10.40;;;7.60;98.00;;;;;;5012887;28;20468;-90
2024/01/31 08:41:04;;;;;;;18.67;8.43;;;7.60;98.00;;;;;;5014061;28;20537;-90
2024/01/31 08:43:31;;;;;;;25.03;11.80;;;8.10;98.00;;;;;;5013462;28;20464;-90
2024/01/31 08:45:58;;;;;;;29.60;12.37;;;8.30;98.00;;;;;;5013221;28;20471;-88
2024/01/31 08:48:25;;;;;;;26.50;11.70;;;8.20;98.00;;;;;;5012865;28;20467;-87
2024/01/31 08:50:52;;;;;;;23.30;10.40;;;8.10;98.00;;;;;;5013221;28;20557;-87
2024/01/31 08:53:19;;;;;;;21.33;9.10;;;8.00;98.00;;;;;;5013324;28;20466;-87
2024/01/31 08:55:47;;;;;;;20.10;9.07;;;8.70;98.00;;;;;;5012909;28;20464;-87
2024/01/31 08:58:14;;;;;;;17.83;8.70;;;9.40;98.00;;;;;;5012357;28;20845;-88
2024/01/31 09:00:41;;;;;;;24.90;11.57;;;10.10;98.00;;;;;;5013241;28;20487;-88
2024/01/31 09:03:08;;;;;;;24.30;11.70;;;10.20;98.00;;;;;;5013115;28;20484;-88
2024/01/31 09:05:35;;;;;;;25.73;11.10;;;10.10;98.00;;;;;;5012925;28;20468;-90
2024/01/31 09:08:03;;;;;;;22.27;10.37;;;10.00;98.00;;;;;;5013585;28;20455;-90
2024/01/31 09:10:30;;;;;;;23.10;11.33;;;9.90;98.00;;;;;;5014040;28;20483;-89
2024/01/31 09:12:58;;;;;;;25.27;12.10;;;9.80;98.00;;;;;;5014454;28;20451;-90
2024/01/31 09:15:25;;;;;;;30.80;12.70;;;9.80;98.00;;;;;;5014176;28;20459;-89
2024/01/31 09:17:52;;;;;;;30.73;13.40;;;9.70;98.00;;;;;;5013441;28;20498;-91
2024/01/31 09:20:20;;;;;;;42.13;14.20;;;9.70;98.00;;;;;;5013880;28;20519;-90
2024/01/31 09:22:47;;;;;;;28.50;13.30;;;9.80;98.00;;;;;;5014115;28;20459;-89
2024/01/31 09:25:15;;;;;;;27.33;13.10;;;9.60;98.00;;;;;;5014402;28;20440;-90
2024/01/31 09:27:43;;;;;;;32.20;13.40;;;9.60;98.00;;;;;;5014546;28;20455;-90
2024/01/31 09:30:12;;;;;;;29.90;12.73;;;9.60;98.00;;;;;;5013991;28;20988;-90
2024/01/31 09:32:39;;;;;;;30.47;13.40;;;9.60;98.00;;;;;;5013968;28;20466;-91
2024/01/31 09:35:07;;;;;;;24.77;12.60;;;9.60;98.00;;;;;;5013531;28;20498;-90
2024/01/31 09:37:34;;;;;;;24.63;11.97;;;9.40;98.00;;;;;;5014090;28;20490;-90
2024/01/31 09:40:01;;;;;;;28.70;13.80;;;9.30;98.00;;;;;;5013441;28;20483;-90
2024/01/31 09:42:28;;;;;;;28.47;12.67;;;9.40;98.00;;;;;;5013946;28;20885;-90
2024/01/31 09:44:56;;;;;;;30.77;12.80;;;9.20;98.00;;;;;;5013690;28;20834;-90
2024/01/31 09:47:28;;;;;;;29.37;12.80;;;9.30;98.00;;;;;;5013374;28;20625;-90
2024/01/31 09:49:55;;;;;;;29.30;13.10;;;9.20;98.00;;;;;;5012533;28;20567;-90
2024/01/31 09:52:27;;;;;;;38.77;13.87;;;9.20;98.00;;;;;;5013224;28;20456;-91
2024/01/31 09:54:57;;;;;;;28.00;12.00;;;9.10;98.00;;;;;;5013489;28;20466;-91
2024/01/31 09:57:25;;;;;;;29.13;12.77;;;9.10;98.00;;;;;;5013844;28;20472;-90
2024/01/31 09:59:52;;;;;;;27.60;13.23;;;9.10;98.00;;;;;;5013333;28;20479;-90
2024/01/31 10:02:19;;;;;;;32.73;14.33;;;9.10;98.00;;;;;;5014180;28;20454;-91
2024/01/31 10:04:53;;;;;;;28.63;11.87;;;9.10;98.00;;;;;;5013592;28;20567;-90
2024/01/31 10:07:24;;;;;;;25.97;12.20;;;9.20;98.00;;;;;;5014713;28;20510;-92
2024/01/31 10:09:52;;;;;;;24.43;11.67;;;9.20;98.00;;;;;;5012822;28;20526;-91
2024/01/31 10:12:20;;;;;;;25.80;11.97;;;9.40;98.00;;;;;;5013055;28;20474;-92
2024/01/31 10:14:51;;;;;;;25.10;11.80;;;9.50;98.00;;;;;;5013392;28;20506;-92
2024/01/31 10:17:22;;;;;;;21.73;10.27;;;9.50;98.00;;;;;;5014871;28;20966;-93
2024/01/31 10:19:51;;;;;;;23.83;11.00;;;9.80;98.00;;;;;;5015151;28;20460;-93
2024/01/31 10:22:18;;;;;;;24.63;11.70;;;9.70;98.00;;;;;;5014747;28;20468;-93
2024/01/31 10:24:49;;;;;;;26.90;11.57;;;9.80;98.00;;;;;;5014753;28;20456;-91
2024/01/31 10:27:19;;;;;;;24.10;11.10;;;9.80;98.00;;;;;;5012931;28;20522;-92
2024/01/31 10:29:47;;;;;;;25.10;11.73;;;9.90;98.00;;;;;;5012747;28;20481;-90
2024/01/31 10:32:16;;;;;;;26.23;11.67;;;9.90;98.00;;;;;;5012827;28;20550;-92
2024/01/31 10:34:44;;;;;;;28.20;11.47;;;10.10;98.00;;;;;;5012533;28;20455;-92
2024/01/31 10:37:13;;;;;;;22.10;10.63;;;10.20;98.00;;;;;;5012997;28;20986;-90
2024/01/31 10:39:41;;;;;;;27.63;11.87;;;10.20;98.00;;;;;;5012101;28;20447;-92
2024/01/31 10:42:08;;;;;;;24.83;11.07;;;10.30;98.00;;;;;;5012762;28;20467;-92
2024/01/31 10:44:37;;;;;;;31.27;12.43;;;10.30;98.00;;;;;;5013001;28;20463;-91
2024/01/31 10:47:05;;;;;;;26.63;12.93;;;10.40;98.00;;;;;;5012764;28;20441;-91
2024/01/31 10:49:32;;;;;;;25.27;11.93;;;10.50;98.00;;;;;;5012321;28;20452;-92
2024/01/31 10:52:03;;;;;;;25.83;12.10;;;10.40;98.00;;;;;;5012869;28;20832;-92
2024/01/31 10:54:34;;;;;;;28.77;12.80;;;10.30;98.00;;;;;;5012954;28;20465;-91
2024/01/31 10:57:04;;;;;;;26.90;11.97;;;10.40;98.00;;;;;;5012466;28;20476;-91
2024/01/31 10:59:36;;;;;;;25.67;11.27;;;10.60;98.00;;;;;;5012256;28;20880;-90
2024/01/31 11:02:03;;;;;;;31.60;12.13;;;10.60;98.00;;;;;;5012271;28;20504;-91
2024/01/31 11:04:31;;;;;;;29.97;12.97;;;10.60;98.00;;;;;;5012679;28;20460;-91
2024/01/31 11:07:00;;;;;;;24.40;11.93;;;10.40;98.00;;;;;;5012633;28;20466;-92
2024/01/31 11:09:28;;;;;;;32.43;12.80;;;10.40;98.00;;;;;;5012269;28;20459;-90
2024/01/31 11:12:06;;;;;;;28.93;12.63;;;10.40;98.00;;;;;;5012971;28;20423;-92
2024/01/31 11:14:34;;;;;;;32.97;13.37;;;10.40;98.00;;;;;;5012860;28;20936;-92
2024/01/31 11:17:08;;;;;;;35.50;13.80;;;10.50;98.00;;;;;;5012197;28;20473;-92
2024/01/31 11:19:40;;;;;;;28.40;12.40;;;10.50;98.00;;;;;;5012168;28;20482;-91
2024/01/31 11:22:08;;;;;;;29.27;12.60;;;10.50;98.00;;;;;;5012266;28;20456;-91
2024/01/31 11:24:35;;;;;;;28.00;12.60;;;10.60;98.00;;;;;;5012438;28;20852;-92
2024/01/31 11:27:04;;;;;;;29.57;13.00;;;10.70;98.00;;;;;;5012673;28;20512;-92
2024/01/31 11:29:32;;;;;;;29.70;12.10;;;10.70;98.00;;;;;;5012529;28;20436;-92
2024/01/31 11:31:59;;;;;;;35.73;13.97;;;10.60;98.00;;;;;;5012363;28;20467;-91
2024/01/31 11:34:27;;;;;;;28.90;12.63;;;10.70;98.00;;;;;;5012262;28;20487;-91
2024/01/31 11:36:54;;;;;;;31.90;13.37;;;10.80;98.00;;;;;;5012339;28;20458;-92
2024/01/31 11:39:26;;;;;;;31.73;13.70;;;10.80;98.00;;;;;;5012058;28;20469;-91
2024/01/31 11:41:54;;;;;;;29.20;13.03;;;10.80;98.00;;;;;;5012644;28;20476;-90
2024/01/31 11:44:22;;;;;;;33.20;13.87;;;10.90;98.00;;;;;;5011032;28;20536;-90
2024/01/31 11:46:50;;;;;;;26.93;12.47;;;10.90;98.00;;;;;;5012045;28;20444;-90
2024/01/31 11:49:18;;;;;;;33.70;12.83;;;10.90;98.00;;;;;;5011571;28;20466;-90
2024/01/31 11:51:45;;;;;;;25.63;12.03;;;11.10;98.00;;;;;;5012307;28;20892;-90
2024/01/31 11:54:12;;;;;;;32.50;12.50;;;11.10;98.00;;;;;;5012234;28;20467;-89
2024/01/31 11:56:39;;;;;;;37.90;13.90;;;11.10;98.00;;;;;;5012050;28;20871;-90
2024/01/31 11:59:06;;;;;;;27.50;12.30;;;11.30;98.00;;;;;;5011451;28;20886;-90
2024/01/31 12:01:35;;;;;;;31.80;13.53;;;11.40;98.00;;;;;;5012117;28;20484;-90
2024/01/31 12:04:03;;;;;;;23.30;11.20;;;11.60;98.00;;;;;;5012196;28;20466;-90
2024/01/31 12:06:30;;;;;;;29.20;12.00;;;11.60;98.00;;;;;;5012653;28;20466;-90
2024/01/31 12:08:59;;;;;;;27.73;12.30;;;11.70;98.00;;;;;;5012082;28;20462;-90
2024/01/31 12:11:26;;;;;;;30.53;13.87;;;11.80;98.00;;;;;;5012586;28;20494;-90
2024/01/31 12:13:54;;;;;;;29.73;13.13;;;11.70;98.00;;;;;;5014517;28;20458;-90
2024/01/31 12:16:21;;;;;;;30.03;12.90;;;11.80;98.00;;;;;;5015644;28;20459;-89
2024/01/31 12:18:59;;;;;;;28.90;12.03;;;11.80;98.00;;;;;;5014870;28;20484;-90
2024/01/31 12:21:26;;;;;;;29.90;11.67;;;11.80;98.00;;;;;;5015514;28;20473;-90
2024/01/31 12:23:53;;;;;;;32.40;12.47;;;11.70;98.00;;;;;;5015683;28;20469;-89
2024/01/31 12:26:21;;;;;;;27.20;11.23;;;11.60;98.00;;;;;;5015767;28;20520;-90
2024/01/31 12:28:54;;;;;;;24.23;10.73;;;11.50;98.00;;;;;;5015017;28;21160;-90
2024/01/31 12:31:22;;;;;;;34.70;12.30;;;11.40;98.00;;;;;;5015210;28;20498;-90
2024/01/31 12:33:49;;;;;;;27.73;10.57;;;11.40;98.00;;;;;;5015348;28;20511;-90
2024/01/31 12:36:17;;;;;;;25.93;10.40;;;11.50;98.00;;;;;;5015023;28;20464;-90
2024/01/31 12:38:44;;;;;;;24.37;11.00;;;11.70;98.00;;;;;;5014546;28;20488;-89
2024/01/31 12:41:11;;;;;;;25.03;11.30;;;11.90;98.00;;;;;;5014966;28;20487;-90
2024/01/31 12:43:39;;;;;;;25.73;10.80;;;12.00;98.00;;;;;;5015191;28;20463;-90
2024/01/31 12:46:06;;;;;;;26.93;11.90;;;11.90;98.00;;;;;;5015025;28;20462;-89
2024/01/31 12:48:33;;;;;;;23.97;10.50;;;12.00;98.00;;;;;;5015000;28;20483;-89